createdAt,value
2022-09-15T00:01:00.928Z,3.17
2022-09-15T00:03:28.876Z,2.50
2022-09-15T00:05:56.217Z,2.90
2022-09-15T00:08:24.076Z,2.62
2022-09-15T00:10:53.732Z,2.87
2022-09-15T00:13:22.099Z,3.10
2022-09-15T00:15:49.736Z,3.45
2022-09-15T00:18:17.401Z,3.80
2022-09-15T00:20:45.538Z,3.40
2022-09-15T00:23:14.585Z,3.62
2022-09-15T00:25:52.691Z,3.22
2022-09-15T00:28:21.291Z,3.78
2022-09-15T00:30:52.447Z,3.58
2022-09-15T00:33:21.063Z,4.10
2022-09-15T00:35:50.183Z,3.62
2022-09-15T00:38:18.657Z,3.50
2022-09-15T00:40:55.481Z,3.40
2022-09-15T00:43:44.545Z,3.30
2022-09-15T00:46:12.324Z,3.50
2022-09-15T00:48:42.453Z,4.10
2022-09-15T00:51:12.883Z,3.92
2022-09-15T00:53:41.245Z,4.22
2022-09-15T00:56:10.081Z,4.05
2022-09-15T00:58:42.897Z,4.47
2022-09-15T01:01:11.568Z,3.55
2022-09-15T01:03:38.956Z,3.60
2022-09-15T01:06:10.556Z,4.15
2022-09-15T01:09:01.618Z,3.75
2022-09-15T01:11:29.208Z,3.90
2022-09-15T01:13:56.765Z,3.85
2022-09-15T01:16:48.694Z,2.95
2022-09-15T01:19:43.223Z,3.92
2022-09-15T01:22:29.210Z,4.22
2022-09-15T01:25:02.976Z,4.47
2022-09-15T01:27:42.550Z,3.97
2022-09-15T01:30:13.571Z,4.18
2022-09-15T01:33:08.464Z,4.07
2022-09-15T01:35:43.771Z,4.97
2022-09-15T01:38:35.517Z,4.80
2022-09-15T01:41:35.308Z,4.62
2022-09-15T01:44:06.979Z,4.68
2022-09-15T01:46:37.588Z,4.30
2022-09-15T01:49:07.039Z,4.20
2022-09-15T01:51:36.530Z,4.37
2022-09-15T01:54:05.824Z,4.55
2022-09-15T01:56:33.110Z,4.50
2022-09-15T01:59:00.728Z,4.87
2022-09-15T02:01:43.129Z,4.20
2022-09-15T02:04:32.131Z,4.47
2022-09-15T02:07:47.463Z,3.97
2022-09-15T02:10:26.880Z,3.83
2022-09-15T02:13:17.041Z,2.97
2022-09-15T02:15:51.576Z,2.25
2022-09-15T02:18:32.732Z,2.05
2022-09-15T02:21:09.245Z,2.40
2022-09-15T02:23:40.708Z,2.25
2022-09-15T02:26:12.757Z,2.17
2022-09-15T02:28:41.812Z,3.03
2022-09-15T02:31:12.132Z,1.65
2022-09-15T02:33:44.159Z,1.48
2022-09-15T02:36:13.784Z,1.40
2022-09-15T02:38:46.356Z,1.92
2022-09-15T02:41:14.619Z,1.50
2022-09-15T02:43:46.412Z,1.23
2022-09-15T02:48:42.546Z,1.33
2022-09-15T02:51:10.414Z,1.35
2022-09-15T02:53:38.104Z,1.55
2022-09-15T02:56:06.495Z,1.50
2022-09-15T02:58:34.567Z,1.70
2022-09-15T03:01:06.586Z,1.73
2022-09-15T03:03:34.483Z,1.70
2022-09-15T03:06:17.331Z,1.98
2022-09-15T03:08:50.910Z,1.60
2022-09-15T03:11:20.350Z,1.90
2022-09-15T03:13:48.819Z,1.50
2022-09-15T03:16:16.391Z,1.60
2022-09-15T03:18:44.019Z,1.85
2022-09-15T03:21:13.339Z,2.17
2022-09-15T03:23:41.766Z,2.00
2022-09-15T03:26:10.454Z,2.10
2022-09-15T03:28:38.918Z,1.67
2022-09-15T03:31:07.350Z,1.98
2022-09-15T03:33:35.175Z,2.25
2022-09-15T03:36:03.037Z,1.75
2022-09-15T03:38:30.328Z,2.22
2022-09-15T03:40:59.567Z,2.03
2022-09-15T03:43:27.307Z,2.08
2022-09-15T03:45:55.217Z,1.70
2022-09-15T03:48:23.834Z,1.87
2022-09-15T03:50:51.680Z,2.15
2022-09-15T03:53:20.107Z,1.92
2022-09-15T03:55:48.895Z,2.10
2022-09-15T03:58:17.160Z,2.15
2022-09-15T04:00:45.813Z,2.17
2022-09-15T04:03:13.576Z,2.30
2022-09-15T04:05:41.921Z,2.33
2022-09-15T04:08:12.028Z,1.70
2022-09-15T04:10:40.747Z,2.30
2022-09-15T04:13:08.515Z,2.30
2022-09-15T04:15:36.033Z,1.73
2022-09-15T04:18:04.849Z,2.30
2022-09-15T04:20:32.665Z,2.12
2022-09-15T04:23:00.213Z,1.90
2022-09-15T04:25:27.855Z,2.05
2022-09-15T04:27:56.775Z,1.92
2022-09-15T04:30:24.307Z,2.08
2022-09-15T04:32:52.429Z,1.90
2022-09-15T04:35:21.904Z,1.60
2022-09-15T04:37:49.186Z,1.75
2022-09-15T04:40:16.900Z,2.10
2022-09-15T04:42:44.251Z,2.17
2022-09-15T04:45:11.639Z,2.10
2022-09-15T04:47:39.196Z,2.03
2022-09-15T04:50:06.697Z,1.70
2022-09-15T04:52:34.030Z,2.08
2022-09-15T04:55:01.587Z,2.15
2022-09-15T04:57:28.873Z,2.20
2022-09-15T04:59:56.169Z,2.12
2022-09-15T05:02:23.841Z,2.50
2022-09-15T05:04:51.560Z,2.03
2022-09-15T05:07:18.836Z,2.20
2022-09-15T05:09:46.376Z,2.15
2022-09-15T05:12:14.127Z,2.60
2022-09-15T05:14:41.455Z,2.12
2022-09-15T05:17:09.024Z,2.30
2022-09-15T05:19:37.080Z,2.65
2022-09-15T05:22:04.698Z,2.53
2022-09-15T05:24:32.237Z,2.50
2022-09-15T05:26:59.549Z,2.80
2022-09-15T05:29:27.012Z,2.53
2022-09-15T05:31:54.748Z,2.83
2022-09-15T05:34:22.092Z,2.75
2022-09-15T05:36:49.420Z,3.00
2022-09-15T05:39:17.188Z,2.95
2022-09-15T05:41:44.783Z,2.92
2022-09-15T05:44:12.068Z,2.67
2022-09-15T05:46:39.715Z,2.85
2022-09-15T05:49:08.708Z,2.60
2022-09-15T05:51:36.407Z,2.60
2022-09-15T05:54:04.153Z,2.70
2022-09-15T05:56:31.477Z,2.83
2022-09-15T05:58:58.806Z,2.53
2022-09-15T06:01:28.081Z,2.97
2022-09-15T06:03:56.806Z,2.80
2022-09-15T06:06:25.343Z,2.85
2022-09-15T06:08:58.070Z,3.25
2022-09-15T06:11:28.680Z,3.40
2022-09-15T06:13:58.843Z,2.70
2022-09-15T06:16:49.410Z,2.65
2022-09-15T06:19:22.718Z,2.55
2022-09-15T06:21:49.990Z,2.45
2022-09-15T06:24:17.543Z,2.50
2022-09-15T06:26:44.828Z,2.65
2022-09-15T06:29:12.701Z,2.00
2022-09-15T06:31:40.617Z,2.50
2022-09-15T06:34:09.316Z,2.78
2022-09-15T06:36:38.065Z,2.40
2022-09-15T06:39:05.716Z,2.53
2022-09-15T06:41:58.367Z,2.60
2022-09-15T06:44:20.623Z,2.78
2022-09-15T06:46:48.772Z,2.58
2022-09-15T06:49:16.488Z,3.00
2022-09-15T06:51:44.069Z,2.75
2022-09-15T06:54:11.919Z,2.62
2022-09-15T06:56:39.207Z,2.75
2022-09-15T06:59:06.751Z,3.50
2022-09-15T07:01:34.056Z,3.35
2022-09-15T07:04:01.863Z,3.40
2022-09-15T07:06:31.000Z,2.92
2022-09-15T07:08:58.954Z,3.20
2022-09-15T07:11:26.267Z,2.97
2022-09-15T07:13:53.911Z,2.78
2022-09-15T07:16:22.550Z,2.33
2022-09-15T07:18:49.964Z,2.37
2022-09-15T07:21:20.015Z,2.45
2022-09-15T07:23:48.235Z,2.22
2022-09-15T07:26:26.324Z,2.00
2022-09-15T07:28:59.467Z,2.05
2022-09-15T07:31:30.313Z,2.17
2022-09-15T07:34:01.345Z,2.07
2022-09-15T07:36:29.680Z,1.70
2022-09-15T07:38:57.340Z,1.80
2022-09-15T07:41:29.662Z,1.90
2022-09-15T07:43:58.991Z,2.15
2022-09-15T07:46:27.829Z,1.65
2022-09-15T07:48:58.551Z,1.80
2022-09-15T07:51:26.674Z,1.55
2022-09-15T07:53:54.552Z,1.90
2022-09-15T07:56:23.273Z,2.08
2022-09-15T07:58:51.164Z,1.73
2022-09-15T08:01:19.721Z,1.80
2022-09-15T08:03:49.194Z,1.80
2022-09-15T08:06:18.919Z,1.62
2022-09-15T08:08:47.048Z,1.60
2022-09-15T08:11:19.425Z,1.40
2022-09-15T08:13:49.471Z,1.62
2022-09-15T08:16:20.009Z,1.50
2022-09-15T08:18:47.937Z,1.67
2022-09-15T08:21:17.730Z,1.60
2022-09-15T08:23:45.268Z,1.48
2022-09-15T08:26:14.397Z,1.60
2022-09-15T08:28:42.449Z,1.20
2022-09-15T08:31:11.874Z,1.37
2022-09-15T08:33:44.755Z,1.60
2022-09-15T08:36:13.443Z,1.15
2022-09-15T08:38:41.909Z,1.12
2022-09-15T08:41:15.434Z,1.10
2022-09-15T08:43:50.638Z,1.37
2022-09-15T08:46:22.657Z,1.15
2022-09-15T08:48:56.954Z,1.20
2022-09-15T08:51:32.355Z,1.17
2022-09-15T08:54:07.539Z,1.10
2022-09-15T08:56:53.532Z,1.33
2022-09-15T08:59:21.396Z,0.90
2022-09-15T09:02:13.654Z,0.80
2022-09-15T09:04:56.202Z,0.80
2022-09-15T09:07:46.150Z,1.20
2022-09-15T09:10:28.207Z,1.00
2022-09-15T09:13:01.884Z,1.00
2022-09-15T09:15:45.501Z,1.00
2022-09-15T09:18:26.307Z,1.00
2022-09-15T09:21:18.707Z,1.10
2022-09-15T09:26:31.511Z,1.02
2022-09-15T09:29:01.111Z,0.80
2022-09-15T09:31:29.430Z,0.68
2022-09-15T09:34:29.240Z,0.80
2022-09-15T09:37:08.557Z,0.70
2022-09-15T09:39:36.048Z,0.90
2022-09-15T09:42:05.702Z,0.82
2022-09-15T09:44:33.900Z,0.98
2022-09-15T09:47:01.919Z,1.10
2022-09-15T09:49:31.612Z,0.80
2022-09-15T09:52:02.360Z,0.80
2022-09-15T09:54:31.593Z,0.60
2022-09-15T09:57:14.166Z,0.80
2022-09-15T09:59:44.439Z,0.77
2022-09-15T10:02:11.591Z,0.80
2022-09-15T10:04:44.033Z,1.08
2022-09-15T10:07:12.571Z,0.88
2022-09-15T10:09:40.457Z,0.85
2022-09-15T10:12:19.028Z,0.68
2022-09-15T10:14:52.511Z,0.75
2022-09-15T10:17:22.980Z,0.70
2022-09-15T10:19:58.284Z,0.70
2022-09-15T10:22:32.032Z,1.20
2022-09-15T10:25:01.064Z,0.90
2022-09-15T10:27:33.942Z,0.88
2022-09-15T10:30:13.821Z,0.82
2022-09-15T10:32:42.490Z,0.95
2022-09-15T10:35:15.026Z,0.80
2022-09-15T10:37:45.369Z,1.00
2022-09-15T10:40:49.614Z,1.15
2022-09-15T10:43:47.898Z,1.37
2022-09-15T10:46:25.163Z,0.73
2022-09-15T10:49:02.504Z,1.00
2022-09-15T10:51:35.919Z,1.10
2022-09-15T10:54:18.061Z,0.90
2022-09-15T10:56:49.797Z,0.80
2022-09-15T10:59:20.086Z,1.17
2022-09-15T11:02:20.355Z,1.10
2022-09-15T11:05:06.566Z,0.90
2022-09-15T11:07:46.140Z,1.52
2022-09-15T11:11:13.490Z,1.67
2022-09-15T11:13:59.329Z,2.30
2022-09-15T11:16:51.560Z,1.85
2022-09-15T11:19:57.702Z,1.65
2022-09-15T11:22:29.073Z,1.83
2022-09-15T11:25:01.160Z,1.50
2022-09-15T11:30:07.989Z,1.67
2022-09-15T11:32:44.902Z,2.00
2022-09-15T11:35:46.407Z,1.70
2022-09-15T11:38:18.142Z,1.77
2022-09-15T11:40:54.591Z,1.70
2022-09-15T11:43:32.028Z,1.50
2022-09-15T11:46:02.104Z,1.70
2022-09-15T11:48:53.600Z,1.87
2022-09-15T11:51:23.684Z,1.70
2022-09-15T11:54:12.664Z,1.77
2022-09-15T11:56:44.387Z,2.03
2022-09-15T11:59:39.099Z,2.05
2022-09-15T12:02:20.649Z,1.70
2022-09-15T12:05:11.087Z,2.15
2022-09-15T12:08:01.109Z,1.77
2022-09-15T12:10:33.660Z,1.37
2022-09-15T12:13:01.155Z,2.20
2022-09-15T12:15:29.339Z,1.90
2022-09-15T12:18:10.857Z,1.75
2022-09-15T12:23:29.230Z,2.40
2022-09-15T12:25:59.830Z,1.55
2022-09-15T12:28:38.557Z,1.60
2022-09-15T12:31:34.492Z,1.98
2022-09-15T12:34:03.595Z,1.80
2022-09-15T12:36:38.315Z,1.60
2022-09-15T12:39:40.035Z,1.45
2022-09-15T12:42:27.540Z,2.20
2022-09-15T12:44:57.893Z,2.35
2022-09-15T12:47:49.024Z,2.53
2022-09-15T12:50:16.216Z,2.12
2022-09-15T12:52:54.296Z,1.42
2022-09-15T12:55:27.548Z,0.90
2022-09-15T12:58:09.644Z,1.08
2022-09-15T13:00:42.494Z,1.12
2022-09-15T13:06:10.458Z,0.80
2022-09-15T13:08:37.859Z,0.60
2022-09-15T13:11:21.507Z,0.80
2022-09-15T13:13:53.689Z,1.20
2022-09-15T13:19:26.735Z,1.30
2022-09-15T13:21:56.857Z,1.60
2022-09-15T13:24:36.274Z,1.90
2022-09-15T13:27:05.932Z,2.10
2022-09-15T13:29:37.599Z,2.00
2022-09-15T13:32:29.743Z,1.90
2022-09-15T13:38:12.288Z,2.30
2022-09-15T13:41:16.364Z,2.40
2022-09-15T13:44:01.519Z,2.20
2022-09-15T13:46:50.127Z,1.67
2022-09-15T13:49:36.133Z,2.05
2022-09-15T13:52:19.078Z,2.00
2022-09-15T13:55:14.293Z,1.85
2022-09-15T14:00:33.888Z,2.50
2022-09-15T14:03:10.740Z,1.42
2022-09-15T14:05:38.259Z,2.42
2022-09-15T14:08:22.987Z,2.95
2022-09-15T14:10:56.233Z,7.37
2022-09-15T14:13:28.795Z,4.30
2022-09-15T14:16:25.310Z,2.67
2022-09-15T14:18:55.206Z,2.35
2022-09-15T14:21:25.389Z,2.40
2022-09-15T14:23:55.406Z,2.10
2022-09-15T14:26:25.536Z,2.47
2022-09-15T14:28:56.699Z,3.25
2022-09-15T14:31:35.644Z,2.60
2022-09-15T14:34:06.268Z,3.10
2022-09-15T14:36:34.436Z,3.08
2022-09-15T14:39:11.640Z,3.17
2022-09-15T14:41:40.170Z,3.80
2022-09-15T14:47:22.822Z,6.93
2022-09-15T14:50:13.335Z,4.57
2022-09-15T14:52:52.295Z,3.83
2022-09-15T14:55:26.871Z,2.62
2022-09-15T14:58:07.812Z,2.30
2022-09-15T15:00:49.300Z,3.72
2022-09-15T15:03:57.335Z,3.25
2022-09-15T15:06:41.667Z,2.80
2022-09-15T15:09:15.265Z,3.20
2022-09-15T15:11:42.878Z,2.60
2022-09-15T15:14:28.984Z,2.47
2022-09-15T15:16:59.200Z,3.00
2022-09-15T15:19:38.546Z,2.90
2022-09-15T15:22:27.035Z,2.87
2022-09-15T15:24:55.228Z,2.92
2022-09-15T15:27:34.825Z,2.78
2022-09-15T15:30:24.004Z,2.65
2022-09-15T15:32:51.894Z,3.05
2022-09-15T15:35:20.216Z,2.60
2022-09-15T15:37:47.936Z,2.28
2022-09-15T15:40:18.432Z,2.60
2022-09-15T15:42:57.740Z,2.10
2022-09-15T15:45:30.440Z,2.50
2022-09-15T15:47:58.313Z,2.75
2022-09-15T15:50:28.269Z,1.70
2022-09-15T15:52:55.632Z,2.17
2022-09-15T15:55:36.342Z,2.28
2022-09-15T15:58:04.081Z,1.60
2022-09-15T16:00:55.016Z,1.83
2022-09-15T16:03:24.030Z,1.58
2022-09-15T16:05:53.519Z,1.45
2022-09-15T16:08:25.254Z,1.67
2022-09-15T16:10:53.841Z,2.05
2022-09-15T16:13:21.861Z,1.67
2022-09-15T16:15:49.422Z,1.77
2022-09-15T16:18:17.116Z,1.50
2022-09-15T16:20:44.692Z,1.42
2022-09-15T16:23:15.136Z,1.73
2022-09-15T16:25:49.710Z,1.77
2022-09-15T16:28:17.246Z,1.87
2022-09-15T16:30:45.024Z,1.87
2022-09-15T16:33:16.936Z,1.90
2022-09-15T16:35:49.353Z,2.33
2022-09-15T16:38:20.186Z,1.92
2022-09-15T16:40:49.143Z,2.37
2022-09-15T16:43:18.114Z,1.70
2022-09-15T16:45:45.894Z,2.10
2022-09-15T16:48:13.437Z,1.87
2022-09-15T16:50:50.310Z,1.83
2022-09-15T16:53:30.854Z,2.45
2022-09-15T16:55:58.580Z,2.25
2022-09-15T16:58:25.905Z,2.72
2022-09-15T17:00:53.701Z,3.40
2022-09-15T17:03:23.838Z,2.87
2022-09-15T17:05:52.936Z,2.35
2022-09-15T17:08:25.627Z,2.83
2022-09-15T17:10:53.486Z,3.50
2022-09-15T17:13:25.138Z,3.42
2022-09-15T17:15:55.424Z,2.58
2022-09-15T17:18:23.296Z,3.05
2022-09-15T17:20:50.782Z,2.50
2022-09-15T17:23:32.269Z,2.60
2022-09-15T17:26:02.099Z,2.47
2022-09-15T17:28:31.071Z,2.60
2022-09-15T17:31:00.809Z,2.53
2022-09-15T17:33:29.569Z,2.30
2022-09-15T17:35:57.169Z,2.60
2022-09-15T17:38:25.106Z,2.87
2022-09-15T17:40:55.116Z,2.70
2022-09-15T17:43:25.304Z,2.35
2022-09-15T17:45:53.846Z,2.75
2022-09-15T17:48:22.260Z,2.83
2022-09-15T17:50:49.907Z,2.72
2022-09-15T17:53:18.321Z,3.20
2022-09-15T17:55:45.664Z,3.83
2022-09-15T17:58:13.405Z,3.28
2022-09-15T18:00:42.515Z,3.55
2022-09-15T18:03:23.943Z,3.53
2022-09-15T18:05:52.153Z,3.20
2022-09-15T18:08:19.692Z,3.70
2022-09-15T18:10:47.127Z,3.40
2022-09-15T18:13:23.430Z,3.97
2022-09-15T18:15:51.253Z,4.40
2022-09-15T18:18:25.057Z,3.97
2022-09-15T18:20:54.497Z,4.35
2022-09-15T18:23:23.997Z,5.53
2022-09-15T18:25:51.927Z,4.78
2022-09-15T18:28:20.115Z,4.45
2022-09-15T18:30:49.366Z,4.45
2022-09-15T18:33:21.833Z,4.40
2022-09-15T18:35:54.227Z,4.15
2022-09-15T18:38:48.046Z,4.57
2022-09-15T18:41:15.615Z,4.28
2022-09-15T18:43:43.715Z,3.95
2022-09-15T18:46:11.205Z,3.92
2022-09-15T18:48:38.915Z,3.72
2022-09-15T18:51:10.183Z,3.20
2022-09-15T18:53:37.924Z,3.58
2022-09-15T18:56:15.093Z,3.40
2022-09-15T18:58:42.490Z,3.60
2022-09-15T19:01:10.206Z,3.55
2022-09-15T19:03:43.982Z,3.85
2022-09-15T19:06:12.020Z,4.03
2022-09-15T19:08:40.306Z,3.80
2022-09-15T19:11:07.598Z,3.72
2022-09-15T19:13:35.689Z,3.50
2022-09-15T19:16:05.346Z,3.92
2022-09-15T19:18:33.262Z,3.40
2022-09-15T19:21:11.247Z,2.85
2022-09-15T19:23:39.132Z,3.35
2022-09-15T19:26:09.134Z,3.55
2022-09-15T19:28:37.392Z,3.15
2022-09-15T19:31:05.217Z,2.78
2022-09-15T19:33:32.844Z,2.92
2022-09-15T19:36:17.269Z,2.83
2022-09-15T19:38:51.812Z,3.08
2022-09-15T19:41:19.143Z,2.95
2022-09-15T19:43:46.533Z,3.12
2022-09-15T19:46:16.208Z,3.40
2022-09-15T19:48:47.865Z,2.40
2022-09-15T19:51:18.358Z,2.62
2022-09-15T19:53:46.229Z,2.15
2022-09-15T19:56:19.026Z,2.37
2022-09-15T19:58:46.820Z,1.60
2022-09-15T20:01:37.111Z,4.57
2022-09-15T20:04:05.632Z,1.77
2022-09-15T20:06:36.117Z,1.83
2022-09-15T20:09:03.778Z,1.95
2022-09-15T20:11:31.836Z,1.98
2022-09-15T20:13:59.538Z,1.92
2022-09-15T20:16:27.466Z,2.42
2022-09-15T20:18:55.344Z,1.90
2022-09-15T20:21:45.748Z,2.20
2022-09-15T20:24:13.448Z,2.20
2022-09-15T20:26:41.111Z,2.25
2022-09-15T20:29:08.445Z,2.47
2022-09-15T20:31:35.980Z,2.47
2022-09-15T20:34:03.355Z,2.33
2022-09-15T20:36:36.034Z,2.33
2022-09-15T20:39:05.698Z,2.35
2022-09-15T20:41:32.995Z,2.05
2022-09-15T20:44:00.823Z,2.53
2022-09-15T20:46:31.517Z,2.33
2022-09-15T20:48:58.853Z,2.42
2022-09-15T20:51:29.457Z,2.40
2022-09-15T20:54:00.141Z,2.37
2022-09-15T20:56:29.205Z,2.85
2022-09-15T20:58:58.458Z,2.45
2022-09-15T21:01:37.115Z,2.62
2022-09-15T21:04:06.221Z,2.85
2022-09-15T21:06:34.071Z,2.60
2022-09-15T21:09:01.941Z,2.72
2022-09-15T21:11:30.028Z,2.62
2022-09-15T21:13:57.660Z,2.25
2022-09-15T21:16:27.417Z,2.50
2022-09-15T21:18:56.620Z,2.92
2022-09-15T21:21:26.239Z,2.67
2022-09-15T21:23:56.282Z,3.10
2022-09-15T21:26:25.938Z,3.50
2022-09-15T21:28:54.150Z,3.37
2022-09-15T21:31:32.762Z,3.85
2022-09-15T21:34:00.867Z,3.47
2022-09-15T21:36:31.571Z,3.90
2022-09-15T21:38:59.494Z,3.40
2022-09-15T21:41:29.974Z,3.92
2022-09-15T21:43:59.022Z,4.03
2022-09-15T21:46:31.146Z,3.80
2022-09-15T21:48:59.646Z,3.83
2022-09-15T21:51:29.178Z,4.80
2022-09-15T21:53:58.511Z,3.80
2022-09-15T21:56:27.327Z,4.50
2022-09-15T21:58:55.062Z,4.60
2022-09-15T22:01:28.139Z,4.95
2022-09-15T22:04:00.837Z,4.80
2022-09-15T22:06:31.935Z,4.40
2022-09-15T22:09:01.072Z,4.27
2022-09-15T22:11:28.740Z,4.55
2022-09-15T22:13:56.081Z,4.62
2022-09-15T22:16:25.166Z,4.50
2022-09-15T22:18:53.018Z,5.62
2022-09-15T22:21:23.174Z,5.07
2022-09-15T22:23:51.739Z,5.18
2022-09-15T22:26:21.728Z,4.68
2022-09-15T22:28:49.541Z,5.22
2022-09-15T22:31:18.871Z,5.25
2022-09-15T22:33:46.653Z,5.10
2022-09-15T22:36:16.104Z,5.03
2022-09-15T22:38:44.054Z,5.30
2022-09-15T22:41:13.623Z,5.25
2022-09-15T22:43:42.275Z,5.85
2022-09-15T22:46:10.695Z,5.43
2022-09-15T22:48:43.036Z,5.70
2022-09-15T22:51:11.846Z,6.10
2022-09-15T22:53:39.445Z,6.75
2022-09-15T22:56:10.580Z,7.03
2022-09-15T22:58:42.138Z,6.40
2022-09-15T23:01:12.432Z,6.87
2022-09-15T23:03:40.244Z,7.10
2022-09-15T23:06:08.211Z,8.00
2022-09-15T23:08:36.423Z,6.97
2022-09-15T23:11:09.841Z,7.18
2022-09-15T23:13:37.276Z,7.12
2022-09-15T23:16:05.771Z,7.60
2022-09-15T23:18:34.708Z,6.97
2022-09-15T23:21:07.514Z,7.65
2022-09-15T23:23:36.489Z,7.50
2022-09-15T23:26:05.806Z,7.62
2022-09-15T23:28:33.342Z,6.87
2022-09-15T23:31:00.938Z,6.32
2022-09-15T23:33:29.999Z,6.20
2022-09-15T23:36:04.594Z,6.30
2022-09-15T23:38:35.249Z,6.07
2022-09-15T23:41:02.637Z,6.43
2022-09-15T23:43:30.093Z,5.00
2022-09-15T23:45:57.645Z,6.37
2022-09-15T23:48:24.936Z,5.40
2022-09-15T23:51:18.399Z,4.93
2022-09-15T23:53:46.002Z,4.72
2022-09-15T23:56:13.317Z,4.43
2022-09-15T23:58:40.843Z,4.57
